sensor_id;sensor_type;location;lat;lon;timestamp;temperature;humidity
72440;DHT22;60446;50.752;4.352;2022-12-18T00:01:24;-6.00;79.90
72440;DHT22;60446;50.752;4.352;2022-12-18T00:03:55;-6.00;80.40
72440;DHT22;60446;50.752;4.352;2022-12-18T00:06:22;-6.00;80.40
72440;DHT22;60446;50.752;4.352;2022-12-18T00:08:48;-5.90;80.60
72440;DHT22;60446;50.752;4.352;2022-12-18T00:11:16;-5.90;80.50
72440;DHT22;60446;50.752;4.352;2022-12-18T00:13:44;-5.90;80.00
72440;DHT22;60446;50.752;4.352;2022-12-18T00:16:12;-6.00;79.70
72440;DHT22;60446;50.752;4.352;2022-12-18T00:18:40;-6.00;79.80
72440;DHT22;60446;50.752;4.352;2022-12-18T00:21:09;-6.10;79.60
72440;DHT22;60446;50.752;4.352;2022-12-18T00:23:37;-6.20;80.00
72440;DHT22;60446;50.752;4.352;2022-12-18T00:26:06;-6.20;80.20
72440;DHT22;60446;50.752;4.352;2022-12-18T00:28:35;-6.20;80.30
72440;DHT22;60446;50.752;4.352;2022-12-18T00:31:06;-6.20;80.20
72440;DHT22;60446;50.752;4.352;2022-12-18T00:33:34;-6.10;80.70
72440;DHT22;60446;50.752;4.352;2022-12-18T00:36:01;-6.10;80.50
72440;DHT22;60446;50.752;4.352;2022-12-18T00:38:27;-6.10;80.70
72440;DHT22;60446;50.752;4.352;2022-12-18T00:40:53;-6.10;80.30
72440;DHT22;60446;50.752;4.352;2022-12-18T00:43:19;-6.20;79.90
72440;DHT22;60446;50.752;4.352;2022-12-18T00:45:45;-6.20;80.00
72440;DHT22;60446;50.752;4.352;2022-12-18T00:48:11;-6.10;79.80
72440;DHT22;60446;50.752;4.352;2022-12-18T00:50:37;-6.20;79.90
72440;DHT22;60446;50.752;4.352;2022-12-18T00:53:03;-6.20;79.90
72440;DHT22;60446;50.752;4.352;2022-12-18T00:55:29;-6.30;80.10
72440;DHT22;60446;50.752;4.352;2022-12-18T00:57:55;-6.30;80.10
72440;DHT22;60446;50.752;4.352;2022-12-18T01:00:21;-6.30;80.00
72440;DHT22;60446;50.752;4.352;2022-12-18T01:02:47;-6.30;79.80
72440;DHT22;60446;50.752;4.352;2022-12-18T01:05:19;-6.40;80.00
72440;DHT22;60446;50.752;4.352;2022-12-18T01:07:45;-6.40;80.30
72440;DHT22;60446;50.752;4.352;2022-12-18T01:10:12;-6.30;80.40
72440;DHT22;60446;50.752;4.352;2022-12-18T01:12:38;-6.30;80.10
72440;DHT22;60446;50.752;4.352;2022-12-18T01:15:05;-6.40;79.60
72440;DHT22;60446;50.752;4.352;2022-12-18T01:17:35;-6.40;79.80
72440;DHT22;60446;50.752;4.352;2022-12-18T01:20:01;-6.30;79.50
72440;DHT22;60446;50.752;4.352;2022-12-18T01:22:26;-6.30;79.30
72440;DHT22;60446;50.752;4.352;2022-12-18T01:24:52;-6.30;79.20
72440;DHT22;60446;50.752;4.352;2022-12-18T01:27:18;-6.40;78.80
72440;DHT22;60446;50.752;4.352;2022-12-18T01:29:44;-6.50;78.60
72440;DHT22;60446;50.752;4.352;2022-12-18T01:32:10;-6.60;79.10
72440;DHT22;60446;50.752;4.352;2022-12-18T01:34:36;-6.60;79.00
72440;DHT22;60446;50.752;4.352;2022-12-18T01:37:06;-6.60;78.80
72440;DHT22;60446;50.752;4.352;2022-12-18T01:39:32;-6.60;79.00
72440;DHT22;60446;50.752;4.352;2022-12-18T01:41:59;-6.50;79.10
72440;DHT22;60446;50.752;4.352;2022-12-18T01:50:10;-6.70;78.30
72440;DHT22;60446;50.752;4.352;2022-12-18T01:52:43;-6.70;79.40
72440;DHT22;60446;50.752;4.352;2022-12-18T01:55:12;-6.70;79.10
72440;DHT22;60446;50.752;4.352;2022-12-18T01:57:39;-6.70;79.30
72440;DHT22;60446;50.752;4.352;2022-12-18T02:00:13;-6.60;79.10
72440;DHT22;60446;50.752;4.352;2022-12-18T02:02:42;-6.70;78.50
72440;DHT22;60446;50.752;4.352;2022-12-18T02:05:10;-6.70;78.60
72440;DHT22;60446;50.752;4.352;2022-12-18T02:08:03;-6.60;79.20
72440;DHT22;60446;50.752;4.352;2022-12-18T02:13:46;-6.70;79.00
72440;DHT22;60446;50.752;4.352;2022-12-18T02:27:40;-6.70;78.60
72440;DHT22;60446;50.752;4.352;2022-12-18T02:30:09;-6.80;78.40
72440;DHT22;60446;50.752;4.352;2022-12-18T02:32:41;-6.70;79.30
72440;DHT22;60446;50.752;4.352;2022-12-18T02:35:13;-6.60;78.50
72440;DHT22;60446;50.752;4.352;2022-12-18T02:37:43;-6.60;78.20
72440;DHT22;60446;50.752;4.352;2022-12-18T02:40:11;-6.70;77.70
72440;DHT22;60446;50.752;4.352;2022-12-18T02:42:38;-6.90;78.20
72440;DHT22;60446;50.752;4.352;2022-12-18T02:45:04;-6.90;78.80
72440;DHT22;60446;50.752;4.352;2022-12-18T02:47:37;-7.00;79.10
72440;DHT22;60446;50.752;4.352;2022-12-18T02:50:48;-7.00;79.10
72440;DHT22;60446;50.752;4.352;2022-12-18T02:56:07;-7.10;77.50
72440;DHT22;60446;50.752;4.352;2022-12-18T03:07:23;-7.50;78.00
72440;DHT22;60446;50.752;4.352;2022-12-18T03:09:53;-7.40;78.30
72440;DHT22;60446;50.752;4.352;2022-12-18T03:12:31;-7.50;78.40
72440;DHT22;60446;50.752;4.352;2022-12-18T03:15:16;-7.40;78.60
72440;DHT22;60446;50.752;4.352;2022-12-18T03:17:59;-7.40;78.80
72440;DHT22;60446;50.752;4.352;2022-12-18T03:20:31;-7.50;79.00
72440;DHT22;60446;50.752;4.352;2022-12-18T03:23:06;-7.40;79.10
72440;DHT22;60446;50.752;4.352;2022-12-18T03:25:38;-7.30;79.10
72440;DHT22;60446;50.752;4.352;2022-12-18T03:28:08;-7.30;78.70
72440;DHT22;60446;50.752;4.352;2022-12-18T03:30:38;-7.20;78.80
72440;DHT22;60446;50.752;4.352;2022-12-18T03:33:15;-7.30;78.40
72440;DHT22;60446;50.752;4.352;2022-12-18T03:35:45;-7.20;78.60
72440;DHT22;60446;50.752;4.352;2022-12-18T03:38:12;-7.20;78.10
72440;DHT22;60446;50.752;4.352;2022-12-18T03:43:34;-7.30;78.30
72440;DHT22;60446;50.752;4.352;2022-12-18T03:49:08;-7.30;78.50
72440;DHT22;60446;50.752;4.352;2022-12-18T03:51:42;-7.30;78.60
72440;DHT22;60446;50.752;4.352;2022-12-18T03:54:13;-7.30;78.80
72440;DHT22;60446;50.752;4.352;2022-12-18T03:56:43;-7.30;78.10
72440;DHT22;60446;50.752;4.352;2022-12-18T03:59:12;-7.30;77.90
72440;DHT22;60446;50.752;4.352;2022-12-18T04:01:42;-7.30;77.90
72440;DHT22;60446;50.752;4.352;2022-12-18T04:04:12;-7.30;77.80
72440;DHT22;60446;50.752;4.352;2022-12-18T04:06:40;-7.30;78.30
72440;DHT22;60446;50.752;4.352;2022-12-18T04:09:08;-7.30;78.00
72440;DHT22;60446;50.752;4.352;2022-12-18T04:11:33;-7.30;78.20
72440;DHT22;60446;50.752;4.352;2022-12-18T04:13:59;-7.40;78.20
72440;DHT22;60446;50.752;4.352;2022-12-18T04:16:26;-7.40;78.70
72440;DHT22;60446;50.752;4.352;2022-12-18T04:18:53;-7.30;78.30
72440;DHT22;60446;50.752;4.352;2022-12-18T04:21:20;-7.40;78.00
72440;DHT22;60446;50.752;4.352;2022-12-18T04:23:46;-7.40;78.00
72440;DHT22;60446;50.752;4.352;2022-12-18T04:26:12;-7.30;78.40
72440;DHT22;60446;50.752;4.352;2022-12-18T04:28:37;-7.40;78.00
72440;DHT22;60446;50.752;4.352;2022-12-18T04:31:03;-7.40;77.90
72440;DHT22;60446;50.752;4.352;2022-12-18T04:33:30;-7.40;78.30
72440;DHT22;60446;50.752;4.352;2022-12-18T04:35:56;-7.40;78.20
72440;DHT22;60446;50.752;4.352;2022-12-18T04:38:22;-7.40;78.00
72440;DHT22;60446;50.752;4.352;2022-12-18T04:40:47;-7.50;77.70
72440;DHT22;60446;50.752;4.352;2022-12-18T04:43:13;-7.40;78.10
72440;DHT22;60446;50.752;4.352;2022-12-18T04:45:39;-7.30;78.30
72440;DHT22;60446;50.752;4.352;2022-12-18T04:48:05;-7.30;77.70
72440;DHT22;60446;50.752;4.352;2022-12-18T04:50:31;-7.30;77.40
72440;DHT22;60446;50.752;4.352;2022-12-18T04:52:57;-7.40;77.60
72440;DHT22;60446;50.752;4.352;2022-12-18T04:55:24;-7.50;78.10
72440;DHT22;60446;50.752;4.352;2022-12-18T04:57:50;-7.50;77.80
72440;DHT22;60446;50.752;4.352;2022-12-18T05:00:16;-7.40;78.30
72440;DHT22;60446;50.752;4.352;2022-12-18T05:02:42;-7.40;78.20
72440;DHT22;60446;50.752;4.352;2022-12-18T05:05:08;-7.40;77.80
72440;DHT22;60446;50.752;4.352;2022-12-18T05:07:34;-7.30;78.00
72440;DHT22;60446;50.752;4.352;2022-12-18T05:10:00;-7.30;77.20
72440;DHT22;60446;50.752;4.352;2022-12-18T05:12:26;-7.40;76.90
72440;DHT22;60446;50.752;4.352;2022-12-18T05:14:52;-7.60;77.10
72440;DHT22;60446;50.752;4.352;2022-12-18T05:17:17;-7.60;77.30
72440;DHT22;60446;50.752;4.352;2022-12-18T05:19:43;-7.70;77.10
72440;DHT22;60446;50.752;4.352;2022-12-18T05:22:10;-7.60;77.60
72440;DHT22;60446;50.752;4.352;2022-12-18T05:24:37;-7.70;77.30
72440;DHT22;60446;50.752;4.352;2022-12-18T05:27:02;-7.70;77.50
72440;DHT22;60446;50.752;4.352;2022-12-18T05:29:28;-7.70;77.10
72440;DHT22;60446;50.752;4.352;2022-12-18T05:31:54;-7.80;77.60
72440;DHT22;60446;50.752;4.352;2022-12-18T05:34:20;-7.80;77.50
72440;DHT22;60446;50.752;4.352;2022-12-18T05:36:46;-7.70;77.60
72440;DHT22;60446;50.752;4.352;2022-12-18T05:39:12;-7.70;77.80
72440;DHT22;60446;50.752;4.352;2022-12-18T05:41:38;-7.70;77.30
72440;DHT22;60446;50.752;4.352;2022-12-18T05:44:04;-7.70;77.50
72440;DHT22;60446;50.752;4.352;2022-12-18T05:46:30;-7.70;77.70
72440;DHT22;60446;50.752;4.352;2022-12-18T05:48:59;-7.60;77.70
72440;DHT22;60446;50.752;4.352;2022-12-18T05:51:26;-7.50;77.20
72440;DHT22;60446;50.752;4.352;2022-12-18T05:53:53;-7.50;77.20
72440;DHT22;60446;50.752;4.352;2022-12-18T05:56:21;-7.40;77.10
72440;DHT22;60446;50.752;4.352;2022-12-18T05:58:47;-7.40;76.80
72440;DHT22;60446;50.752;4.352;2022-12-18T06:01:19;-7.30;76.50
72440;DHT22;60446;50.752;4.352;2022-12-18T06:03:47;-7.30;76.20
72440;DHT22;60446;50.752;4.352;2022-12-18T06:06:15;-7.30;76.50
72440;DHT22;60446;50.752;4.352;2022-12-18T06:08:45;-7.20;76.40
72440;DHT22;60446;50.752;4.352;2022-12-18T06:11:11;-7.20;76.40
72440;DHT22;60446;50.752;4.352;2022-12-18T06:13:37;-7.20;77.00
72440;DHT22;60446;50.752;4.352;2022-12-18T06:16:05;-7.30;77.00
72440;DHT22;60446;50.752;4.352;2022-12-18T06:18:31;-7.30;77.30
72440;DHT22;60446;50.752;4.352;2022-12-18T06:20:58;-7.30;77.80
72440;DHT22;60446;50.752;4.352;2022-12-18T06:23:24;-7.40;77.20
72440;DHT22;60446;50.752;4.352;2022-12-18T06:25:51;-7.40;77.30
72440;DHT22;60446;50.752;4.352;2022-12-18T06:28:17;-7.40;77.20
72440;DHT22;60446;50.752;4.352;2022-12-18T06:30:45;-7.50;77.40
72440;DHT22;60446;50.752;4.352;2022-12-18T06:33:11;-7.50;76.80
72440;DHT22;60446;50.752;4.352;2022-12-18T06:35:37;-7.50;77.20
72440;DHT22;60446;50.752;4.352;2022-12-18T06:38:03;-7.40;77.30
72440;DHT22;60446;50.752;4.352;2022-12-18T06:40:29;-7.50;77.20
72440;DHT22;60446;50.752;4.352;2022-12-18T06:42:55;-7.40;77.60
72440;DHT22;60446;50.752;4.352;2022-12-18T06:45:21;-7.40;77.30
72440;DHT22;60446;50.752;4.352;2022-12-18T06:47:47;-7.40;76.90
72440;DHT22;60446;50.752;4.352;2022-12-18T06:50:13;-7.40;77.10
72440;DHT22;60446;50.752;4.352;2022-12-18T06:52:39;-7.40;77.40
72440;DHT22;60446;50.752;4.352;2022-12-18T06:55:10;-7.40;77.20
72440;DHT22;60446;50.752;4.352;2022-12-18T06:57:36;-7.40;77.20
72440;DHT22;60446;50.752;4.352;2022-12-18T07:00:05;-7.40;77.10
72440;DHT22;60446;50.752;4.352;2022-12-18T07:02:31;-7.40;76.90
72440;DHT22;60446;50.752;4.352;2022-12-18T07:04:58;-7.40;77.30
72440;DHT22;60446;50.752;4.352;2022-12-18T07:07:24;-7.30;77.00
72440;DHT22;60446;50.752;4.352;2022-12-18T07:09:50;-7.30;76.80
72440;DHT22;60446;50.752;4.352;2022-12-18T07:12:16;-7.20;76.70
72440;DHT22;60446;50.752;4.352;2022-12-18T07:14:42;-7.30;77.00
72440;DHT22;60446;50.752;4.352;2022-12-18T07:17:08;-7.20;77.10
72440;DHT22;60446;50.752;4.352;2022-12-18T07:19:34;-7.20;77.10
72440;DHT22;60446;50.752;4.352;2022-12-18T07:22:00;-7.30;76.90
72440;DHT22;60446;50.752;4.352;2022-12-18T07:24:26;-7.30;76.80
72440;DHT22;60446;50.752;4.352;2022-12-18T07:26:52;-7.40;76.60
72440;DHT22;60446;50.752;4.352;2022-12-18T07:29:18;-7.30;77.30
72440;DHT22;60446;50.752;4.352;2022-12-18T07:31:44;-7.40;77.10
72440;DHT22;60446;50.752;4.352;2022-12-18T07:34:14;-7.40;77.10
72440;DHT22;60446;50.752;4.352;2022-12-18T07:36:40;-7.40;76.70
72440;DHT22;60446;50.752;4.352;2022-12-18T07:39:06;-7.40;77.00
72440;DHT22;60446;50.752;4.352;2022-12-18T07:41:33;-7.40;77.50
72440;DHT22;60446;50.752;4.352;2022-12-18T07:43:58;-7.40;77.70
72440;DHT22;60446;50.752;4.352;2022-12-18T07:46:24;-7.30;77.70
72440;DHT22;60446;50.752;4.352;2022-12-18T07:48:50;-7.30;77.40
72440;DHT22;60446;50.752;4.352;2022-12-18T07:51:17;-7.20;77.30
72440;DHT22;60446;50.752;4.352;2022-12-18T07:53:43;-7.20;77.30
72440;DHT22;60446;50.752;4.352;2022-12-18T07:56:11;-7.20;77.20
72440;DHT22;60446;50.752;4.352;2022-12-18T07:58:37;-7.20;77.70
72440;DHT22;60446;50.752;4.352;2022-12-18T08:01:09;-7.20;77.40
72440;DHT22;60446;50.752;4.352;2022-12-18T08:03:37;-7.10;77.10
72440;DHT22;60446;50.752;4.352;2022-12-18T08:06:06;-7.10;76.90
72440;DHT22;60446;50.752;4.352;2022-12-18T08:08:33;-7.10;77.10
72440;DHT22;60446;50.752;4.352;2022-12-18T08:11:00;-7.00;76.80
72440;DHT22;60446;50.752;4.352;2022-12-18T08:13:27;-6.90;76.70
72440;DHT22;60446;50.752;4.352;2022-12-18T08:16:04;-6.80;76.70
72440;DHT22;60446;50.752;4.352;2022-12-18T08:18:33;-6.60;76.20
72440;DHT22;60446;50.752;4.352;2022-12-18T08:21:17;-6.60;75.90
72440;DHT22;60446;50.752;4.352;2022-12-18T08:23:46;-6.40;76.10
72440;DHT22;60446;50.752;4.352;2022-12-18T08:26:12;-6.40;75.80
72440;DHT22;60446;50.752;4.352;2022-12-18T08:28:39;-6.30;75.70
72440;DHT22;60446;50.752;4.352;2022-12-18T08:31:06;-6.20;75.50
72440;DHT22;60446;50.752;4.352;2022-12-18T08:33:33;-6.10;75.50
72440;DHT22;60446;50.752;4.352;2022-12-18T08:36:00;-6.10;75.40
72440;DHT22;60446;50.752;4.352;2022-12-18T08:38:27;-6.00;75.40
72440;DHT22;60446;50.752;4.352;2022-12-18T08:41:00;-6.00;75.20
72440;DHT22;60446;50.752;4.352;2022-12-18T08:43:28;-5.90;75.30
72440;DHT22;60446;50.752;4.352;2022-12-18T08:46:15;-5.90;75.00
72440;DHT22;60446;50.752;4.352;2022-12-18T08:48:42;-5.80;75.30
72440;DHT22;60446;50.752;4.352;2022-12-18T08:51:08;-5.70;75.00
72440;DHT22;60446;50.752;4.352;2022-12-18T08:53:35;-5.70;74.90
72440;DHT22;60446;50.752;4.352;2022-12-18T08:56:02;-5.60;75.20
72440;DHT22;60446;50.752;4.352;2022-12-18T08:58:29;-5.50;74.70
72440;DHT22;60446;50.752;4.352;2022-12-18T09:01:02;-5.40;74.70
72440;DHT22;60446;50.752;4.352;2022-12-18T09:03:29;-5.30;74.30
72440;DHT22;60446;50.752;4.352;2022-12-18T09:05:55;-5.20;74.30
72440;DHT22;60446;50.752;4.352;2022-12-18T09:08:21;-5.10;74.40
72440;DHT22;60446;50.752;4.352;2022-12-18T09:10:49;-4.90;73.90
72440;DHT22;60446;50.752;4.352;2022-12-18T09:13:17;-4.90;72.90
72440;DHT22;60446;50.752;4.352;2022-12-18T09:15:46;-4.80;73.10
72440;DHT22;60446;50.752;4.352;2022-12-18T09:18:22;-4.90;73.10
72440;DHT22;60446;50.752;4.352;2022-12-18T09:20:48;-4.80;73.10
72440;DHT22;60446;50.752;4.352;2022-12-18T09:23:15;-4.80;72.60
72440;DHT22;60446;50.752;4.352;2022-12-18T09:25:41;-4.70;73.10
72440;DHT22;60446;50.752;4.352;2022-12-18T09:28:15;-4.60;72.90
72440;DHT22;60446;50.752;4.352;2022-12-18T09:30:49;-4.50;72.80
72440;DHT22;60446;50.752;4.352;2022-12-18T09:33:16;-4.50;72.70
72440;DHT22;60446;50.752;4.352;2022-12-18T09:35:43;-4.40;73.10
72440;DHT22;60446;50.752;4.352;2022-12-18T09:38:15;-4.30;72.80
72440;DHT22;60446;50.752;4.352;2022-12-18T09:40:48;-4.30;72.80
72440;DHT22;60446;50.752;4.352;2022-12-18T09:43:24;-4.20;72.80
72440;DHT22;60446;50.752;4.352;2022-12-18T09:45:58;-4.10;72.90
72440;DHT22;60446;50.752;4.352;2022-12-18T09:48:42;-4.00;72.50
72440;DHT22;60446;50.752;4.352;2022-12-18T09:51:21;-4.00;71.60
72440;DHT22;60446;50.752;4.352;2022-12-18T09:53:57;-3.90;72.60
72440;DHT22;60446;50.752;4.352;2022-12-18T09:56:28;-3.80;71.90
72440;DHT22;60446;50.752;4.352;2022-12-18T09:58:59;-3.70;71.80
72440;DHT22;60446;50.752;4.352;2022-12-18T10:01:27;-3.70;72.20
72440;DHT22;60446;50.752;4.352;2022-12-18T10:03:54;-3.60;72.10
72440;DHT22;60446;50.752;4.352;2022-12-18T10:06:30;-3.60;71.70
72440;DHT22;60446;50.752;4.352;2022-12-18T10:09:12;-3.50;72.20
72440;DHT22;60446;50.752;4.352;2022-12-18T10:12:08;-3.50;72.10
72440;DHT22;60446;50.752;4.352;2022-12-18T10:14:59;-3.40;72.30
72440;DHT22;60446;50.752;4.352;2022-12-18T10:17:49;-3.30;71.10
72440;DHT22;60446;50.752;4.352;2022-12-18T10:26:07;-3.10;71.40
72440;DHT22;60446;50.752;4.352;2022-12-18T10:28:37;-3.10;71.70
72440;DHT22;60446;50.752;4.352;2022-12-18T10:31:18;-3.00;71.30
72440;DHT22;60446;50.752;4.352;2022-12-18T10:33:46;-2.90;70.80
72440;DHT22;60446;50.752;4.352;2022-12-18T10:36:12;-2.90;70.20
72440;DHT22;60446;50.752;4.352;2022-12-18T10:38:38;-2.70;69.70
72440;DHT22;60446;50.752;4.352;2022-12-18T10:44:20;-2.60;69.40
72440;DHT22;60446;50.752;4.352;2022-12-18T10:46:50;-2.50;68.90
72440;DHT22;60446;50.752;4.352;2022-12-18T10:49:29;-2.50;69.40
72440;DHT22;60446;50.752;4.352;2022-12-18T10:52:16;-2.40;69.40
72440;DHT22;60446;50.752;4.352;2022-12-18T10:54:51;-2.30;69.50
72440;DHT22;60446;50.752;4.352;2022-12-18T10:57:39;-2.20;68.80
72440;DHT22;60446;50.752;4.352;2022-12-18T11:00:23;-2.20;68.20
72440;DHT22;60446;50.752;4.352;2022-12-18T11:02:51;-2.20;67.70
72440;DHT22;60446;50.752;4.352;2022-12-18T11:07:54;-2.00;67.40
72440;DHT22;60446;50.752;4.352;2022-12-18T11:10:28;-2.00;67.00
72440;DHT22;60446;50.752;4.352;2022-12-18T11:13:16;-2.00;66.60
72440;DHT22;60446;50.752;4.352;2022-12-18T11:15:43;-1.90;66.50
72440;DHT22;60446;50.752;4.352;2022-12-18T11:18:36;-1.90;66.60
72440;DHT22;60446;50.752;4.352;2022-12-18T11:21:10;-1.90;66.50
72440;DHT22;60446;50.752;4.352;2022-12-18T11:23:47;-1.80;66.90
72440;DHT22;60446;50.752;4.352;2022-12-18T11:26:15;-1.90;66.40
72440;DHT22;60446;50.752;4.352;2022-12-18T11:28:50;-1.90;66.60
72440;DHT22;60446;50.752;4.352;2022-12-18T11:31:32;-1.80;66.50
72440;DHT22;60446;50.752;4.352;2022-12-18T11:36:40;-1.60;66.50
72440;DHT22;60446;50.752;4.352;2022-12-18T11:39:22;-1.60;67.70
72440;DHT22;60446;50.752;4.352;2022-12-18T11:41:56;-1.50;66.10
72440;DHT22;60446;50.752;4.352;2022-12-18T11:44:50;-1.50;65.80
72440;DHT22;60446;50.752;4.352;2022-12-18T11:49:55;-1.50;66.10
72440;DHT22;60446;50.752;4.352;2022-12-18T11:52:39;-1.40;67.00
72440;DHT22;60446;50.752;4.352;2022-12-18T11:55:14;-1.50;64.80
72440;DHT22;60446;50.752;4.352;2022-12-18T11:57:59;-1.40;65.00
72440;DHT22;60446;50.752;4.352;2022-12-18T12:00:25;-1.40;64.00
72440;DHT22;60446;50.752;4.352;2022-12-18T12:06:03;-1.30;64.40
72440;DHT22;60446;50.752;4.352;2022-12-18T12:11:58;-1.10;63.90
72440;DHT22;60446;50.752;4.352;2022-12-18T12:17:42;-1.10;64.60
72440;DHT22;60446;50.752;4.352;2022-12-18T12:27:36;-1.00;62.40
72440;DHT22;60446;50.752;4.352;2022-12-18T12:30:22;-1.10;63.30
72440;DHT22;60446;50.752;4.352;2022-12-18T12:40:47;-1.00;63.80
72440;DHT22;60446;50.752;4.352;2022-12-18T12:43:42;-1.00;63.00
72440;DHT22;60446;50.752;4.352;2022-12-18T12:46:17;-1.10;64.30
72440;DHT22;60446;50.752;4.352;2022-12-18T12:48:52;-1.00;64.20
72440;DHT22;60446;50.752;4.352;2022-12-18T12:51:26;-0.90;64.30
72440;DHT22;60446;50.752;4.352;2022-12-18T12:53:57;-0.90;63.80
72440;DHT22;60446;50.752;4.352;2022-12-18T12:59:41;-1.00;63.80
72440;DHT22;60446;50.752;4.352;2022-12-18T13:08:00;-1.00;63.30
72440;DHT22;60446;50.752;4.352;2022-12-18T13:10:40;-1.00;63.90
72440;DHT22;60446;50.752;4.352;2022-12-18T13:13:10;-1.00;63.40
72440;DHT22;60446;50.752;4.352;2022-12-18T13:18:32;-1.10;64.30
72440;DHT22;60446;50.752;4.352;2022-12-18T13:23:31;-1.00;63.90
72440;DHT22;60446;50.752;4.352;2022-12-18T13:28:56;-1.00;63.80
72440;DHT22;60446;50.752;4.352;2022-12-18T13:36:56;-0.90;64.70
72440;DHT22;60446;50.752;4.352;2022-12-18T13:39:44;-0.90;63.80
72440;DHT22;60446;50.752;4.352;2022-12-18T13:45:00;-1.00;64.10
72440;DHT22;60446;50.752;4.352;2022-12-18T13:47:33;-1.00;64.40
72440;DHT22;60446;50.752;4.352;2022-12-18T13:50:10;-0.90;64.80
72440;DHT22;60446;50.752;4.352;2022-12-18T13:52:58;-1.00;65.00
72440;DHT22;60446;50.752;4.352;2022-12-18T13:55:25;-0.90;64.30
72440;DHT22;60446;50.752;4.352;2022-12-18T13:58:03;-0.90;64.30
72440;DHT22;60446;50.752;4.352;2022-12-18T14:00:31;-0.90;64.60
72440;DHT22;60446;50.752;4.352;2022-12-18T14:02:59;-1.00;63.90
72440;DHT22;60446;50.752;4.352;2022-12-18T14:05:32;-1.00;64.60
72440;DHT22;60446;50.752;4.352;2022-12-18T14:08:13;-1.00;64.40
72440;DHT22;60446;50.752;4.352;2022-12-18T14:10:45;-1.00;64.70
72440;DHT22;60446;50.752;4.352;2022-12-18T14:13:26;-1.00;64.80
72440;DHT22;60446;50.752;4.352;2022-12-18T14:15:55;-1.00;65.00
72440;DHT22;60446;50.752;4.352;2022-12-18T14:18:43;-1.00;64.80
72440;DHT22;60446;50.752;4.352;2022-12-18T14:21:29;-1.00;64.30
72440;DHT22;60446;50.752;4.352;2022-12-18T14:24:20;-0.90;64.60
72440;DHT22;60446;50.752;4.352;2022-12-18T14:26:49;-0.90;64.90
72440;DHT22;60446;50.752;4.352;2022-12-18T14:29:28;-0.90;64.90
72440;DHT22;60446;50.752;4.352;2022-12-18T14:32:16;-0.90;64.40
72440;DHT22;60446;50.752;4.352;2022-12-18T14:34:50;-0.90;64.80
72440;DHT22;60446;50.752;4.352;2022-12-18T14:37:22;-0.90;63.90
72440;DHT22;60446;50.752;4.352;2022-12-18T14:40:01;-1.00;64.00
72440;DHT22;60446;50.752;4.352;2022-12-18T14:42:37;-1.00;64.20
72440;DHT22;60446;50.752;4.352;2022-12-18T14:45:33;-1.00;64.00
72440;DHT22;60446;50.752;4.352;2022-12-18T14:51:01;-0.90;63.80
72440;DHT22;60446;50.752;4.352;2022-12-18T14:53:45;-0.90;64.10
72440;DHT22;60446;50.752;4.352;2022-12-18T14:56:21;-0.90;64.00
72440;DHT22;60446;50.752;4.352;2022-12-18T14:58:54;-1.00;63.60
72440;DHT22;60446;50.752;4.352;2022-12-18T15:01:29;-1.00;63.40
72440;DHT22;60446;50.752;4.352;2022-12-18T15:04:00;-1.00;63.50
72440;DHT22;60446;50.752;4.352;2022-12-18T15:06:34;-1.00;63.90
72440;DHT22;60446;50.752;4.352;2022-12-18T15:09:22;-1.00;63.40
72440;DHT22;60446;50.752;4.352;2022-12-18T15:11:57;-1.00;63.50
72440;DHT22;60446;50.752;4.352;2022-12-18T15:14:49;-1.10;63.00
72440;DHT22;60446;50.752;4.352;2022-12-18T15:17:22;-1.10;63.70
72440;DHT22;60446;50.752;4.352;2022-12-18T15:19:58;-1.10;63.80
72440;DHT22;60446;50.752;4.352;2022-12-18T15:22:34;-1.10;62.80
72440;DHT22;60446;50.752;4.352;2022-12-18T15:25:23;-1.10;63.10
72440;DHT22;60446;50.752;4.352;2022-12-18T15:27:58;-1.10;63.40
72440;DHT22;60446;50.752;4.352;2022-12-18T15:30:29;-1.10;64.20
72440;DHT22;60446;50.752;4.352;2022-12-18T15:33:23;-1.10;64.50
72440;DHT22;60446;50.752;4.352;2022-12-18T15:36:07;-1.00;64.10
72440;DHT22;60446;50.752;4.352;2022-12-18T15:38:36;-1.00;64.10
72440;DHT22;60446;50.752;4.352;2022-12-18T15:41:03;-1.00;64.40
72440;DHT22;60446;50.752;4.352;2022-12-18T15:43:40;-1.00;64.10
72440;DHT22;60446;50.752;4.352;2022-12-18T15:46:13;-1.10;64.10
72440;DHT22;60446;50.752;4.352;2022-12-18T15:48:52;-1.10;65.00
72440;DHT22;60446;50.752;4.352;2022-12-18T15:51:34;-1.00;64.80
72440;DHT22;60446;50.752;4.352;2022-12-18T15:54:05;-1.00;64.30
72440;DHT22;60446;50.752;4.352;2022-12-18T15:56:36;-1.00;64.60
72440;DHT22;60446;50.752;4.352;2022-12-18T15:59:22;-1.00;64.40
72440;DHT22;60446;50.752;4.352;2022-12-18T16:01:51;-1.00;63.80
72440;DHT22;60446;50.752;4.352;2022-12-18T16:04:22;-1.00;63.10
72440;DHT22;60446;50.752;4.352;2022-12-18T16:06:50;-1.00;62.70
72440;DHT22;60446;50.752;4.352;2022-12-18T16:09:38;-1.00;63.20
72440;DHT22;60446;50.752;4.352;2022-12-18T16:12:10;-1.00;63.30
72440;DHT22;60446;50.752;4.352;2022-12-18T16:14:42;-1.00;62.90
72440;DHT22;60446;50.752;4.352;2022-12-18T16:17:11;-1.00;62.10
72440;DHT22;60446;50.752;4.352;2022-12-18T16:19:39;-1.00;62.60
72440;DHT22;60446;50.752;4.352;2022-12-18T16:22:21;-1.00;62.50
72440;DHT22;60446;50.752;4.352;2022-12-18T16:24:54;-0.90;61.80
72440;DHT22;60446;50.752;4.352;2022-12-18T16:27:23;-0.90;62.50
72440;DHT22;60446;50.752;4.352;2022-12-18T16:29:51;-0.90;62.20
72440;DHT22;60446;50.752;4.352;2022-12-18T16:32:20;-0.90;62.30
72440;DHT22;60446;50.752;4.352;2022-12-18T16:34:49;-0.90;62.20
72440;DHT22;60446;50.752;4.352;2022-12-18T16:37:16;-0.80;62.10
72440;DHT22;60446;50.752;4.352;2022-12-18T16:39:43;-0.80;61.60
72440;DHT22;60446;50.752;4.352;2022-12-18T16:42:14;-0.80;61.60
72440;DHT22;60446;50.752;4.352;2022-12-18T16:44:44;-0.80;61.50
72440;DHT22;60446;50.752;4.352;2022-12-18T16:47:12;-0.80;61.50
72440;DHT22;60446;50.752;4.352;2022-12-18T16:49:41;-0.80;61.40
72440;DHT22;60446;50.752;4.352;2022-12-18T16:52:12;-0.70;61.80
72440;DHT22;60446;50.752;4.352;2022-12-18T16:54:40;-0.70;61.10
72440;DHT22;60446;50.752;4.352;2022-12-18T16:57:15;-0.70;61.10
72440;DHT22;60446;50.752;4.352;2022-12-18T16:59:43;-0.70;61.40
72440;DHT22;60446;50.752;4.352;2022-12-18T17:02:18;-0.70;61.50
72440;DHT22;60446;50.752;4.352;2022-12-18T17:04:59;-0.70;61.50
72440;DHT22;60446;50.752;4.352;2022-12-18T17:07:33;-0.70;62.10
72440;DHT22;60446;50.752;4.352;2022-12-18T17:10:03;-0.70;62.10
72440;DHT22;60446;50.752;4.352;2022-12-18T17:12:30;-0.60;62.80
72440;DHT22;60446;50.752;4.352;2022-12-18T17:15:00;-0.60;63.50
72440;DHT22;60446;50.752;4.352;2022-12-18T17:17:27;-0.60;63.50
72440;DHT22;60446;50.752;4.352;2022-12-18T17:19:54;-0.60;64.80
72440;DHT22;60446;50.752;4.352;2022-12-18T17:22:22;-0.60;64.60
72440;DHT22;60446;50.752;4.352;2022-12-18T17:24:49;-0.60;65.80
72440;DHT22;60446;50.752;4.352;2022-12-18T17:27:16;-0.70;65.20
72440;DHT22;60446;50.752;4.352;2022-12-18T17:29:43;-0.70;66.30
72440;DHT22;60446;50.752;4.352;2022-12-18T17:32:14;-0.70;66.20
72440;DHT22;60446;50.752;4.352;2022-12-18T17:34:42;-0.70;66.10
72440;DHT22;60446;50.752;4.352;2022-12-18T17:37:09;-0.70;66.70
72440;DHT22;60446;50.752;4.352;2022-12-18T17:39:37;-0.70;67.20
72440;DHT22;60446;50.752;4.352;2022-12-18T17:42:04;-0.80;67.30